Phoenix — OR3790 — position and weather

sailwx.info

Track history (hours):
 
Tides and Currents Weather Stations Pressure Air Temp Water Temp Dewpoint Dewpoint Depression Visibility Wind Speed Wind Dir Waves Ship Positions

Phoenix

Last reported at 2017-Jul-21 08:22 UTC. Time now 2017-Aug-21 04:32 UTC.
Position N 37°58' W 000°41'.
Warning: this ship's position is 30 days out of date.

Length 17 m.

Type: Pleasure craft. MMSI: 205379010.

Date/timePositionNaut miles runAvg speedWind from/ knotsBaromVisibWave heightAir tempDewpointWater temp
2017-Jul-21 08:22N 37°58' W 000°41'0 0.0
2017-Jul-19 19:06N 37°58' W 000°41'0 0.0
2017-Jul-19 18:45N 37°58' W 000°41'0 0.7
2017-Jul-19 18:30N 37°58' W 000°41'1 2.8
2017-Jul-19 18:00N 37°58' W 000°39'8 6.4
2017-Jul-19 16:49N 38°03' W 000°32'  
2017-Jul-16 07:39N 39°56' E 000°49'2 6.8
2017-Jul-16 07:25N 39°56' E 000°51'4 7.0
2017-Jul-16 06:55N 39°56' E 000°56'3 7.0
2017-Jul-16 06:30N 39°56' E 000°59'4 7.0
2017-Jul-16 06:00N 39°56' E 001°04'3 6.5
2017-Jul-16 05:29N 39°57' E 001°08'3 6.4
2017-Jul-16 05:00N 39°57' E 001°12'3 6.1
2017-Jul-16 04:28N 39°58' E 001°16'3 5.9
2017-Jul-16 04:00N 39°58' E 001°20'3 5.8
2017-Jul-16 03:27N 39°59' E 001°24'3 5.3
2017-Jul-16 02:55N 40°01' E 001°26'3 6.4
2017-Jul-16 02:30N 40°04' E 001°27'4 6.5
2017-Jul-16 01:57N 40°07' E 001°28'3 6.8
2017-Jul-16 01:28N 40°10' E 001°29'3 6.9
2017-Jul-16 01:01N 40°13' E 001°30'4 6.5
2017-Jul-16 00:25N 40°17' E 001°32'3 6.2
2017-Jul-15 23:59N 40°20' E 001°33'3 6.1
2017-Jul-15 23:30N 40°23' E 001°34'3 6.2
2017-Jul-15 22:59N 40°26' E 001°35'3 6.1
2017-Jul-15 22:25N 40°29' E 001°36'3 6.0
2017-Jul-15 21:58N 40°31' E 001°37'3 5.7
2017-Jul-15 21:30N 40°34' E 001°38'3 5.4
2017-Jul-15 21:00N 40°37' E 001°39'4 5.6
2017-Jul-15 20:22N 40°40' E 001°41'2 5.9
2017-Jul-15 19:58N 40°42' E 001°42'3 5.6
2017-Jul-15 19:29N 40°45' E 001°43'2 4.2
2017-Jul-15 19:00N 40°47' E 001°43'3 5.5
2017-Jul-15 18:29N 40°49' E 001°42'3 5.1
2017-Jul-15 17:53N 40°52' E 001°42'  
Track history (hours):
 
Tides and Currents Weather Stations Pressure Air Temp Water Temp Dewpoint Dewpoint Depression Visibility Wind Speed Wind Dir Waves Ship Positions

Phoenix

Last reported at 2017-Jul-21 08:22 UTC. Time now 2017-Aug-21 04:32 UTC.
Position N 37°58' W 000°41'.
Warning: this ship's position is 30 days out of date.

Length 17 m.

Type: Pleasure craft. MMSI: 205379010.

Date/timePositionNaut miles runAvg speedWind from/ knotsBaromVisibWave heightAir tempDewpointWater temp
2017-Jul-21 08:22N 37°58' W 000°41'0 0.0
2017-Jul-19 19:06N 37°58' W 000°41'0 0.0
2017-Jul-19 18:45N 37°58' W 000°41'0 0.7
2017-Jul-19 18:30N 37°58' W 000°41'1 2.8
2017-Jul-19 18:00N 37°58' W 000°39'8 6.4
2017-Jul-19 16:49N 38°03' W 000°32'  
2017-Jul-16 07:39N 39°56' E 000°49'2 6.8
2017-Jul-16 07:25N 39°56' E 000°51'4 7.0
2017-Jul-16 06:55N 39°56' E 000°56'3 7.0
2017-Jul-16 06:30N 39°56' E 000°59'4 7.0
2017-Jul-16 06:00N 39°56' E 001°04'3 6.5
2017-Jul-16 05:29N 39°57' E 001°08'3 6.4
2017-Jul-16 05:00N 39°57' E 001°12'3 6.1
2017-Jul-16 04:28N 39°58' E 001°16'3 5.9
2017-Jul-16 04:00N 39°58' E 001°20'3 5.8
2017-Jul-16 03:27N 39°59' E 001°24'3 5.3
2017-Jul-16 02:55N 40°01' E 001°26'3 6.4
2017-Jul-16 02:30N 40°04' E 001°27'4 6.5
2017-Jul-16 01:57N 40°07' E 001°28'3 6.8
2017-Jul-16 01:28N 40°10' E 001°29'3 6.9
2017-Jul-16 01:01N 40°13' E 001°30'4 6.5
2017-Jul-16 00:25N 40°17' E 001°32'3 6.2
2017-Jul-15 23:59N 40°20' E 001°33'3 6.1
2017-Jul-15 23:30N 40°23' E 001°34'3 6.2
2017-Jul-15 22:59N 40°26' E 001°35'3 6.1
2017-Jul-15 22:25N 40°29' E 001°36'3 6.0
2017-Jul-15 21:58N 40°31' E 001°37'3 5.7
2017-Jul-15 21:30N 40°34' E 001°38'3 5.4
2017-Jul-15 21:00N 40°37' E 001°39'4 5.6
2017-Jul-15 20:22N 40°40' E 001°41'2 5.9
2017-Jul-15 19:58N 40°42' E 001°42'3 5.6
2017-Jul-15 19:29N 40°45' E 001°43'2 4.2
2017-Jul-15 19:00N 40°47' E 001°43'3 5.5
2017-Jul-15 18:29N 40°49' E 001°42'3 5.1
2017-Jul-15 17:53N 40°52' E 001°42'  

Dump ship's entire track history